createdAt,value
2022-12-18T00:03:25.992Z,-5.90
2022-12-18T00:08:28.526Z,-5.90
2022-12-18T00:13:30.250Z,-5.80
2022-12-18T00:18:32.470Z,-5.80
2022-12-18T00:23:35.826Z,-5.90
2022-12-18T00:28:37.969Z,-5.90
2022-12-18T00:33:40.331Z,-6.00
2022-12-18T00:38:42.888Z,-6.00
2022-12-18T00:43:44.605Z,-6.00
2022-12-18T00:48:46.319Z,-6.10
2022-12-18T00:53:48.126Z,-6.10
2022-12-18T00:58:50.445Z,-6.10
2022-12-18T01:03:52.240Z,-6.20
2022-12-18T01:08:54.074Z,-6.20
2022-12-18T01:13:56.044Z,-6.30
2022-12-18T01:18:57.938Z,-6.30
2022-12-18T01:23:59.857Z,-6.40
2022-12-18T01:29:01.584Z,-6.40
2022-12-18T01:34:04.830Z,-6.60
2022-12-18T01:39:11.272Z,-6.70
2022-12-18T01:44:50.740Z,-6.70
2022-12-18T01:49:53.494Z,-6.80
2022-12-18T01:54:56.802Z,-7.00
2022-12-18T02:00:03.394Z,-7.20
2022-12-18T02:05:05.741Z,-7.50
2022-12-18T02:10:28.762Z,-7.40
2022-12-18T02:15:42.196Z,-7.30
2022-12-18T02:21:05.977Z,-7.50
2022-12-18T02:26:21.649Z,-7.60
2022-12-18T02:31:27.892Z,-7.70
2022-12-18T02:36:31.036Z,-7.60
2022-12-18T02:41:32.849Z,-7.30
2022-12-18T02:46:40.287Z,-7.30
2022-12-18T02:51:54.805Z,-7.20
2022-12-18T02:57:04.449Z,-7.20
2022-12-18T03:02:32.841Z,-7.20
2022-12-18T03:07:40.061Z,-7.10
2022-12-18T03:12:50.903Z,-7.10
2022-12-18T03:17:58.759Z,-7.10
2022-12-18T03:23:15.309Z,-7.10
2022-12-18T03:28:21.795Z,-7.10
2022-12-18T03:33:56.998Z,-7.10
2022-12-18T03:38:58.788Z,-7.10
2022-12-18T03:44:21.888Z,-7.10
2022-12-18T03:49:32.857Z,-7.20
2022-12-18T03:54:36.514Z,-7.30
2022-12-18T03:59:40.359Z,-7.40
2022-12-18T04:04:44.224Z,-7.60
2022-12-18T04:09:47.587Z,-7.60
2022-12-18T04:14:49.318Z,-7.60
2022-12-18T04:19:51.377Z,-7.70
2022-12-18T04:24:53.110Z,-7.80
2022-12-18T04:29:54.864Z,-7.80
2022-12-18T04:34:56.677Z,-7.90
2022-12-18T04:39:58.380Z,-7.90
2022-12-18T04:45:00.065Z,-7.90
2022-12-18T04:50:01.902Z,-7.90
2022-12-18T04:55:04.345Z,-7.80
2022-12-18T05:00:07.191Z,-7.90
2022-12-18T05:05:09.378Z,-8.00
2022-12-18T05:10:11.140Z,-8.10
2022-12-18T05:15:12.909Z,-8.10
2022-12-18T05:20:14.899Z,-8.10
2022-12-18T05:25:16.757Z,-8.20
2022-12-18T05:30:18.639Z,-8.20
2022-12-18T05:35:20.422Z,-8.30
2022-12-18T05:40:22.174Z,-8.40
2022-12-18T05:45:23.978Z,-8.50
2022-12-18T05:50:25.823Z,-8.70
2022-12-18T05:55:27.536Z,-8.70
2022-12-18T06:00:29.540Z,-8.80
2022-12-18T06:05:43.208Z,-8.80
2022-12-18T06:10:52.242Z,-8.90
2022-12-18T06:15:54.020Z,-8.90
2022-12-18T06:20:57.254Z,-9.00
2022-12-18T06:25:59.118Z,-9.00
2022-12-18T06:31:00.943Z,-8.90
2022-12-18T06:36:05.768Z,-9.00
2022-12-18T06:41:15.921Z,-9.00
2022-12-18T06:46:18.010Z,-9.00
2022-12-18T06:51:22.247Z,-9.10
2022-12-18T06:56:23.960Z,-9.10
2022-12-18T07:01:26.161Z,-9.00
2022-12-18T07:06:27.989Z,-9.00
2022-12-18T07:11:29.766Z,-9.10
2022-12-18T07:16:31.583Z,-9.10
2022-12-18T07:21:33.317Z,-9.00
2022-12-18T07:26:35.117Z,-9.00
2022-12-18T07:31:36.878Z,-8.80
2022-12-18T07:36:38.749Z,-8.70
2022-12-18T07:41:47.390Z,-8.70
2022-12-18T07:46:49.307Z,-8.50
2022-12-18T07:51:51.051Z,-8.50
2022-12-18T07:56:53.582Z,-8.40
2022-12-18T08:01:55.523Z,-8.30
2022-12-18T08:06:57.620Z,-8.20
2022-12-18T08:11:59.408Z,-8.00
2022-12-18T08:17:01.197Z,-8.00
2022-12-18T08:22:03.038Z,-7.80
2022-12-18T08:32:28.632Z,-7.50
2022-12-18T08:37:30.441Z,-7.40
2022-12-18T08:42:58.189Z,-7.30
2022-12-18T08:47:59.922Z,-7.20
2022-12-18T08:53:01.851Z,-7.10
2022-12-18T08:58:03.597Z,-6.90
2022-12-18T09:03:05.567Z,-6.70
2022-12-18T09:08:07.305Z,-6.70
2022-12-18T09:13:09.028Z,-6.60
2022-12-18T09:18:11.096Z,-6.20
2022-12-18T09:23:13.827Z,-5.40
2022-12-18T09:28:18.015Z,-5.30
2022-12-18T09:33:19.788Z,-4.50
2022-12-18T09:38:21.740Z,-3.20
2022-12-18T09:43:38.317Z,-2.00
2022-12-18T09:48:45.351Z,-1.30
2022-12-18T09:53:54.795Z,-1.10
2022-12-18T09:59:01.861Z,-1.00
2022-12-18T10:04:03.840Z,-1.10
2022-12-18T10:09:24.205Z,-2.40
2022-12-18T10:14:37.501Z,-3.50
2022-12-18T10:19:57.432Z,-4.10
2022-12-18T10:25:17.545Z,-4.70
2022-12-18T10:30:22.462Z,-4.90
2022-12-18T10:35:27.740Z,-4.90
2022-12-18T10:40:29.862Z,-5.00
2022-12-18T10:45:31.694Z,-4.90
2022-12-18T10:51:09.205Z,-4.90
2022-12-18T10:56:03.248Z,-4.80
2022-12-18T11:01:16.832Z,-4.80
2022-12-18T11:06:25.602Z,-4.80
2022-12-18T11:11:28.359Z,-4.80
2022-12-18T11:16:34.559Z,-4.70
2022-12-18T11:21:43.505Z,-4.70
2022-12-18T11:26:45.315Z,-4.70
2022-12-18T11:31:47.341Z,-4.70
2022-12-18T11:36:50.487Z,-4.70
2022-12-18T11:42:10.473Z,-4.70
2022-12-18T11:47:31.537Z,-4.60
2022-12-18T11:52:41.439Z,-4.60
2022-12-18T11:58:08.285Z,-4.60
2022-12-18T12:03:47.175Z,-4.50
2022-12-18T12:09:09.833Z,-4.60
2022-12-18T12:14:18.492Z,-4.50
2022-12-18T12:19:40.775Z,-4.50
2022-12-18T12:25:09.713Z,-4.40
2022-12-18T12:30:23.215Z,-4.40
2022-12-18T12:35:25.000Z,-4.30
2022-12-18T12:46:06.148Z,-4.20
2022-12-18T12:51:21.842Z,-4.20
2022-12-18T12:56:30.193Z,-4.10
2022-12-18T13:01:44.118Z,-4.10
2022-12-18T13:07:00.285Z,-4.10
2022-12-18T13:12:30.524Z,-4.10
2022-12-18T13:17:36.838Z,-4.00
2022-12-18T13:22:46.953Z,-4.00
2022-12-18T13:28:09.898Z,-4.00
2022-12-18T13:33:14.717Z,-4.10
2022-12-18T13:38:29.697Z,-4.30
2022-12-18T13:43:44.678Z,-4.30
2022-12-18T13:49:01.325Z,-4.20
2022-12-18T13:54:12.305Z,-4.20
2022-12-18T13:59:25.419Z,-4.20
2022-12-18T14:04:32.267Z,-4.20
2022-12-18T14:09:41.695Z,-4.10
2022-12-18T14:14:47.123Z,-4.20
2022-12-18T14:19:51.993Z,-4.20
2022-12-18T14:25:16.146Z,-4.20
2022-12-18T14:30:36.121Z,-4.20
2022-12-18T14:35:43.791Z,-4.20
2022-12-18T14:40:45.574Z,-4.20
2022-12-18T14:45:47.794Z,-4.30
2022-12-18T14:51:05.111Z,-4.30
2022-12-18T14:56:28.043Z,-4.20
2022-12-18T15:01:39.167Z,-4.20
2022-12-18T15:06:42.691Z,-4.20
2022-12-18T15:11:46.224Z,-4.10
2022-12-18T15:16:55.307Z,-4.00
2022-12-18T15:22:05.888Z,-4.00
2022-12-18T15:27:23.644Z,-4.00
2022-12-18T15:32:26.478Z,-3.90
2022-12-18T15:37:28.178Z,-3.80
2022-12-18T15:42:49.185Z,-3.70
2022-12-18T15:47:51.205Z,-3.70
2022-12-18T15:52:56.175Z,-3.50
2022-12-18T15:57:57.938Z,-3.50
2022-12-18T16:02:59.996Z,-3.30
2022-12-18T16:08:01.914Z,-3.20
2022-12-18T16:13:03.651Z,-3.20
2022-12-18T16:18:05.505Z,-3.20
2022-12-18T16:23:07.322Z,-3.30
2022-12-18T16:28:09.055Z,-3.30
2022-12-18T16:33:12.191Z,-3.20
2022-12-18T16:38:14.002Z,-3.10
2022-12-18T16:43:15.754Z,-3.10
2022-12-18T16:48:17.589Z,-3.00
2022-12-18T16:53:19.369Z,-2.90
2022-12-18T16:58:21.118Z,-2.80
2022-12-18T17:03:23.025Z,-2.80
2022-12-18T17:08:24.878Z,-2.80
2022-12-18T17:13:27.687Z,-2.70
2022-12-18T17:18:29.635Z,-2.70
2022-12-18T17:23:31.433Z,-2.60
2022-12-18T17:28:34.409Z,-2.50
2022-12-18T17:33:36.200Z,-2.50
2022-12-18T17:38:38.803Z,-2.40
2022-12-18T17:43:45.740Z,-2.40
2022-12-18T17:48:47.610Z,-2.50
2022-12-18T17:53:49.639Z,-2.60
2022-12-18T17:58:51.926Z,-2.50
2022-12-18T18:03:56.212Z,-2.30
2022-12-18T18:08:58.110Z,-2.20
2022-12-18T18:14:04.147Z,-2.00
2022-12-18T18:19:10.427Z,-1.90
2022-12-18T18:24:14.367Z,-1.80
2022-12-18T18:29:19.025Z,-1.80
2022-12-18T18:34:23.807Z,-1.80
2022-12-18T18:39:26.218Z,-1.80
2022-12-18T18:44:28.127Z,-1.80
2022-12-18T18:49:31.396Z,-1.70
2022-12-18T18:54:33.231Z,-1.60
2022-12-18T18:59:34.971Z,-1.50
2022-12-18T19:04:40.033Z,-1.50
2022-12-18T19:09:51.928Z,-1.50
2022-12-18T19:14:54.602Z,-1.40
2022-12-18T19:19:56.713Z,-1.30
2022-12-18T19:24:58.635Z,-1.30
2022-12-18T19:30:00.361Z,-1.30
2022-12-18T19:35:02.616Z,-1.20
2022-12-18T19:40:07.278Z,-1.30
2022-12-18T19:45:14.248Z,-1.20
2022-12-18T19:50:16.076Z,-1.00
2022-12-18T19:55:17.998Z,-1.00
2022-12-18T20:00:19.770Z,-0.90
2022-12-18T20:05:25.081Z,-0.90
2022-12-18T20:10:26.819Z,-0.90
2022-12-18T20:15:28.555Z,-0.80
2022-12-18T20:20:30.583Z,-0.90
2022-12-18T20:25:32.754Z,-0.90
2022-12-18T20:30:34.490Z,-1.10
2022-12-18T20:35:36.199Z,-1.10
2022-12-18T20:40:41.773Z,-1.10
2022-12-18T20:45:43.675Z,-1.00
2022-12-18T20:50:58.049Z,-0.90
2022-12-18T20:56:05.506Z,-0.80
2022-12-18T21:01:13.091Z,-0.80
2022-12-18T21:06:16.647Z,-0.70
2022-12-18T21:11:39.945Z,-0.50
2022-12-18T21:16:43.946Z,-0.50
2022-12-18T21:21:46.811Z,-0.50
2022-12-18T21:26:49.465Z,-0.50
2022-12-18T21:31:54.016Z,-0.50
2022-12-18T21:36:57.355Z,-0.40
2022-12-18T21:42:18.375Z,-0.40
2022-12-18T21:47:21.767Z,-0.40
2022-12-18T21:52:31.440Z,-0.50
2022-12-18T21:57:34.133Z,-0.60
2022-12-18T22:02:36.094Z,-0.60
2022-12-18T22:07:38.007Z,-0.60
2022-12-18T22:12:44.517Z,-0.60
2022-12-18T22:17:46.710Z,-0.60
2022-12-18T22:22:50.583Z,-0.60
2022-12-18T22:28:11.025Z,-0.60
2022-12-18T22:33:12.868Z,-0.60
2022-12-18T22:38:14.541Z,-0.60
2022-12-18T22:43:16.269Z,-0.60
2022-12-18T22:48:18.045Z,-0.60
2022-12-18T22:53:21.094Z,-0.60
2022-12-18T22:58:22.812Z,-0.70
2022-12-18T23:03:24.790Z,-0.60
2022-12-18T23:08:26.570Z,-0.60
2022-12-18T23:13:30.655Z,-0.50
2022-12-18T23:18:32.712Z,-0.50
2022-12-18T23:23:36.310Z,-0.50
2022-12-18T23:28:39.366Z,-0.50
2022-12-18T23:33:41.295Z,-0.50
2022-12-18T23:38:47.219Z,-0.50
2022-12-18T23:43:49.475Z,-0.50
2022-12-18T23:48:52.205Z,-0.50
2022-12-18T23:53:55.311Z,-0.50
2022-12-18T23:58:57.542Z,-0.50
